Kealakekua, Hawaii
Current Conditions -  °F | °C
As of 12:53 AM on Monday 20 Oct 2014 (Local Time) from PHKO Reporting Station
Broken Clouds Broken Clouds  
Wind Chill: 80°   Ceiling: 5000
Heat Index: 84°   Visibility: 10mi
Dew Point: 71°   Wind: 0mph
Humidity: 74%   Direction: NA
Pressure: 29.94"   Gusts: NA
Location:  19.51°N, 155.91°W
Report Text: PHKO 201053Z AUTO 00000KT 10SM BKN050 27/22 A2994 RMK AO2 SLP139 T02670217 TSNO
Loading
Personal Weather Stations






























Interactive Weather Map
Tropical Storm Tracking
New forecast layout! Learn more

10-Day Weather Forecast

Advertisements
Track Severe Weather on mobile